Time;durP1;ratioP1;P1;durP2;ratioP2;P2;SDS_P1;SDS_P2;PMS_P1;PMS_P2;Temp;Humidity;BMP_temperature;BMP_pressure;BME280_temperature;BME280_humidity;BME280_pressure;Samples;Min_cycle;Max_cycle;Signal;HPM_P1;HPM_P2
2021/04/29 00:00:53;;;;;;;35.38;24.15;;;;;;;11.54;100.00;101036.81;5056388;28;20118;-72
2021/04/29 00:03:38;;;;;;;33.92;24.80;;;;;;;11.65;100.00;101042.81;5058138;28;20025;-73
2021/04/29 00:06:24;;;;;;;35.45;24.42;;;;;;;11.49;100.00;101055.25;5056401;28;20033;-72
2021/04/29 00:09:11;;;;;;;30.92;23.13;;;;;;;11.68;100.00;101063.72;5057749;28;20020;-73
2021/04/29 00:11:56;;;;;;;33.33;21.27;;;;;;;11.83;100.00;101050.34;5057749;28;20032;-71
2021/04/29 00:14:42;;;;;;;29.58;21.30;;;;;;;11.59;100.00;101046.34;5057892;28;20029;-73
2021/04/29 00:17:28;;;;;;;27.75;21.55;;;;;;;11.94;100.00;101043.16;5057695;28;20025;-74
2021/04/29 00:20:17;;;;;;;32.28;21.45;;;;;;;11.54;100.00;101050.78;5042284;28;20102;-73
2021/04/29 00:23:03;;;;;;;27.77;21.10;;;;;;;11.69;100.00;101045.31;5030523;28;20032;-74
2021/04/29 00:25:49;;;;;;;34.42;24.30;;;;;;;11.95;100.00;101047.50;5055936;28;20036;-74
2021/04/29 00:28:35;;;;;;;33.05;22.98;;;;;;;11.86;100.00;101043.28;5042365;28;20025;-74
2021/04/29 00:31:22;;;;;;;30.88;22.40;;;;;;;11.98;100.00;101052.72;5057051;28;20039;-75
2021/04/29 00:34:07;;;;;;;29.92;22.02;;;;;;;11.98;100.00;101056.19;5042865;28;20036;-75
2021/04/29 00:36:53;;;;;;;30.60;21.25;;;;;;;11.53;100.00;101056.94;5042340;28;20041;-75
2021/04/29 00:39:39;;;;;;;32.47;21.73;;;;;;;11.86;100.00;101059.03;5042080;28;20047;-74
2021/04/29 00:42:25;;;;;;;29.10;21.73;;;;;;;12.26;100.00;101069.72;5056587;28;20044;-73
2021/04/29 00:45:12;;;;;;;31.15;22.70;;;;;;;12.20;100.00;101065.44;5057105;28;20025;-73
2021/04/29 00:47:58;;;;;;;32.33;23.83;;;;;;;11.85;100.00;101048.59;5055815;28;20119;-74
2021/04/29 00:50:44;;;;;;;31.60;22.30;;;;;;;11.77;100.00;101056.56;5055905;28;20090;-74
2021/04/29 00:53:37;;;;;;;31.98;22.23;;;;;;;11.82;100.00;101052.09;5055133;28;20048;-75
2021/04/29 00:56:25;;;;;;;30.02;22.92;;;;;;;12.10;100.00;101055.97;5056889;28;20082;-74
2021/04/29 00:59:11;;;;;;;31.80;24.73;;;;;;;12.34;100.00;101052.03;5057287;28;20032;-73
2021/04/29 01:02:03;;;;;;;34.28;25.80;;;;;;;12.14;100.00;101039.25;5055347;28;20021;-73
2021/04/29 01:05:25;;;;;;;32.17;23.52;;;;;;;12.01;100.00;101035.13;5055562;28;20039;-74
2021/04/29 01:08:21;;;;;;;35.38;24.73;;;;;;;12.15;100.00;101027.88;5056516;28;20033;-74
2021/04/29 01:11:15;;;;;;;33.35;23.42;;;;;;;11.62;100.00;101027.09;5042279;28;20048;-74
2021/04/29 01:14:04;;;;;;;32.20;23.88;;;;;;;12.16;100.00;101024.34;5056783;28;20025;-74
2021/04/29 01:16:50;;;;;;;35.13;25.67;;;;;;;12.49;100.00;101023.69;5041475;28;20116;-72
2021/04/29 01:19:52;;;;;;;35.40;25.75;;;;;;;12.00;100.00;101027.28;5056015;28;20047;-74
2021/04/29 01:22:43;;;;;;;33.55;24.58;;;;;;;12.20;100.00;101019.91;5041658;28;20025;-74
2021/04/29 01:25:31;;;;;;;32.17;24.30;;;;;;;12.37;100.00;101021.31;5055843;28;20029;-74
2021/04/29 01:28:18;;;;;;;36.35;25.45;;;;;;;12.47;100.00;101009.72;5042016;28;20086;-73
2021/04/29 01:31:04;;;;;;;33.05;24.80;;;;;;;11.99;100.00;101013.31;5040116;28;20025;-73
2021/04/29 01:33:51;;;;;;;31.05;23.98;;;;;;;12.30;100.00;101010.97;5041832;28;20021;-73
2021/04/29 01:36:39;;;;;;;31.33;24.13;;;;;;;12.30;100.00;101008.31;5040290;28;20029;-74
2021/04/29 01:39:26;;;;;;;32.60;23.67;;;;;;;11.92;100.00;101008.16;5054799;28;20052;-73
2021/04/29 01:42:12;;;;;;;38.13;25.80;;;;;;;12.39;100.00;101016.03;5055278;28;20082;-74
2021/04/29 01:44:59;;;;;;;31.25;22.98;;;;;;;11.78;100.00;101026.78;5054901;28;20448;-73
2021/04/29 01:47:45;;;;;;;33.72;24.95;;;;;;;11.96;100.00;101020.34;5054962;28;20045;-75
2021/04/29 01:50:31;;;;;;;32.45;23.38;;;;;;;11.94;100.00;101007.25;5054610;28;20037;-74
2021/04/29 01:53:17;;;;;;;33.55;23.00;;;;;;;11.87;100.00;100999.53;5054532;28;20029;-74
2021/04/29 01:56:03;;;;;;;33.90;23.23;;;;;;;12.07;100.00;101000.91;5040260;28;20067;-74
2021/04/29 01:58:49;;;;;;;31.20;24.15;;;;;;;12.10;100.00;100999.97;5055848;28;20025;-74
2021/04/29 02:01:37;;;;;;;31.70;22.77;;;;;;;11.97;100.00;101003.72;5053241;28;20057;-74
2021/04/29 02:04:23;;;;;;;31.20;21.98;;;;;;;11.99;100.00;101009.81;5039332;28;20035;-74
2021/04/29 02:07:09;;;;;;;29.02;23.38;;;;;;;12.34;100.00;101010.84;5054198;28;20040;-74
2021/04/29 02:09:55;;;;;;;28.98;22.33;;;;;;;12.28;100.00;101007.47;5054694;28;20025;-75
2021/04/29 02:12:45;;;;;;;29.80;23.00;;;;;;;12.64;100.00;101022.50;5054156;28;20350;-74
2021/04/29 02:15:35;;;;;;;29.45;21.52;;;;;;;12.67;100.00;101035.59;5054920;28;20063;-74
2021/04/29 02:18:22;;;;;;;29.35;22.10;;;;;;;12.37;100.00;101023.94;5053092;28;20103;-73
2021/04/29 02:21:12;;;;;;;28.63;22.48;;;;;;;12.27;100.00;101022.41;5054118;28;20045;-74
2021/04/29 02:23:58;;;;;;;27.45;20.60;;;;;;;11.98;100.00;101015.97;5053738;28;20406;-74
2021/04/29 02:26:43;;;;;;;26.00;20.08;;;;;;;12.12;100.00;101030.56;5054005;28;20106;-74
2021/04/29 02:29:30;;;;;;;26.83;21.70;;;;;;;12.19;100.00;101024.31;5040971;28;20024;-74
2021/04/29 02:32:17;;;;;;;28.00;22.45;;;;;;;12.25;100.00;101023.28;5042843;28;20025;-74
2021/04/29 02:35:07;;;;;;;30.65;23.02;;;;;;;12.45;100.00;101036.91;5054594;28;20433;-74
2021/04/29 02:37:53;;;;;;;28.52;21.25;;;;;;;12.41;100.00;101036.09;5053614;28;20039;-74
2021/04/29 02:40:39;;;;;;;32.97;24.95;;;;;;;12.26;100.00;101030.31;5055314;28;20040;-74
2021/04/29 02:43:26;;;;;;;30.90;23.58;;;;;;;11.73;100.00;101033.88;5054547;28;20103;-74
2021/04/29 02:46:14;;;;;;;32.88;25.42;;;;;;;12.05;100.00;101039.44;5053692;28;20045;-73
2021/04/29 02:49:00;;;;;;;33.38;25.80;;;;;;;12.16;100.00;101049.75;5039518;28;20025;-74
2021/04/29 02:51:46;;;;;;;33.05;23.88;;;;;;;12.11;100.00;101052.47;5053838;28;20035;-74
2021/04/29 02:54:32;;;;;;;31.70;23.83;;;;;;;12.46;100.00;101055.28;5053751;28;20021;-74
2021/04/29 02:57:22;;;;;;;33.20;26.10;;;;;;;12.52;100.00;101067.44;5053743;28;20418;-73
2021/04/29 03:00:11;;;;;;;31.27;24.25;;;;;;;12.56;100.00;101062.09;5053779;28;20370;-74
2021/04/29 03:02:57;;;;;;;36.63;26.85;;;;;;;12.60;100.00;101062.88;5038898;28;20021;-73
2021/04/29 03:05:42;;;;;;;33.05;25.55;;;;;;;12.33;100.00;101072.19;5053746;28;20025;-74
2021/04/29 03:08:28;;;;;;;34.88;25.88;;;;;;;12.26;100.00;101075.81;5054671;28;20025;-74
2021/04/29 03:11:14;;;;;;;35.47;27.20;;;;;;;12.50;100.00;101085.84;5054024;28;20025;-75
2021/04/29 03:14:00;;;;;;;33.47;25.15;;;;;;;12.44;100.00;101088.63;5057924;28;20389;-74
2021/04/29 03:16:46;;;;;;;32.00;26.13;;;;;;;12.64;100.00;101094.34;5058053;28;20025;-75
2021/04/29 03:19:32;;;;;;;32.47;25.45;;;;;;;12.82;100.00;101090.50;5043699;28;20044;-74
2021/04/29 03:22:18;;;;;;;33.38;25.13;;;;;;;12.60;100.00;101103.19;5044638;28;20031;-74
2021/04/29 03:25:04;;;;;;;36.10;27.75;;;;;;;12.80;100.00;101108.91;5057189;28;20112;-74
2021/04/29 03:27:50;;;;;;;33.97;24.25;;;;;;;11.98;100.00;101108.72;5058710;28;20025;-74
2021/04/29 03:30:36;;;;;;;31.25;24.98;;;;;;;12.45;100.00;101114.00;5057462;28;20017;-74
2021/04/29 03:33:22;;;;;;;35.90;25.38;;;;;;;12.49;100.00;101113.03;5057839;28;20580;-74
2021/04/29 03:36:08;;;;;;;35.58;26.27;;;;;;;12.54;100.00;101111.19;5057144;28;20036;-74
2021/04/29 03:38:54;;;;;;;33.50;26.05;;;;;;;12.46;100.00;101114.88;5057742;28;20024;-74
2021/04/29 03:41:40;;;;;;;39.45;30.58;;;;;;;12.62;100.00;101114.53;5044002;28;20035;-74
2021/04/29 03:44:25;;;;;;;39.38;28.48;;;;;;;12.78;100.00;101109.84;5042991;28;20149;-75
2021/04/29 03:47:11;;;;;;;33.13;24.90;;;;;;;12.62;100.00;101106.63;5058171;28;20060;-74
2021/04/29 03:49:57;;;;;;;32.13;25.40;;;;;;;12.82;100.00;101111.53;5057888;28;20115;-74
2021/04/29 03:52:43;;;;;;;31.30;24.60;;;;;;;12.72;100.00;101113.47;5058247;28;20021;-74
2021/04/29 03:55:29;;;;;;;33.75;27.92;;;;;;;12.80;100.00;101110.66;5057626;28;20029;-75
2021/04/29 03:58:14;;;;;;;34.47;26.15;;;;;;;12.48;100.00;101111.31;5058238;28;20063;-74
2021/04/29 04:01:00;;;;;;;32.80;25.92;;;;;;;12.74;100.00;101101.13;5057650;28;20025;-74
2021/04/29 04:03:46;;;;;;;33.47;25.02;;;;;;;13.17;100.00;101103.75;5057313;28;20465;-74
2021/04/29 04:06:32;;;;;;;35.53;26.65;;;;;;;13.01;100.00;101100.63;5056461;28;20045;-74
2021/04/29 04:09:17;;;;;;;32.20;24.80;;;;;;;12.77;100.00;101089.69;5057711;28;20094;-75
2021/04/29 04:12:05;;;;;;;34.70;25.63;;;;;;;12.44;100.00;101088.63;5043106;28;20091;-75
2021/04/29 04:14:51;;;;;;;31.33;24.05;;;;;;;12.62;100.00;101093.50;5042687;28;20099;-74
2021/04/29 04:17:36;;;;;;;31.73;23.73;;;;;;;12.95;100.00;101100.69;5043072;28;20342;-75
2021/04/29 04:20:23;;;;;;;31.27;24.88;;;;;;;12.85;100.00;101096.53;5056739;28;20449;-74
2021/04/29 04:23:10;;;;;;;32.58;24.95;;;;;;;12.96;100.00;101105.09;5056702;28;20029;-74
2021/04/29 04:25:55;;;;;;;33.58;24.95;;;;;;;12.77;100.00;101114.22;5056322;28;20453;-75
2021/04/29 04:28:41;;;;;;;31.67;24.40;;;;;;;12.80;100.00;101102.78;5056340;28;20501;-74
2021/04/29 04:31:27;;;;;;;33.90;24.88;;;;;;;12.82;100.00;101112.38;5027952;28;20024;-74
2021/04/29 04:34:13;;;;;;;31.75;22.80;;;;;;;12.88;100.00;101106.13;5042007;28;20040;-74
2021/04/29 04:36:59;;;;;;;30.95;24.00;;;;;;;12.88;100.00;101108.75;5042012;28;20032;-75
2021/04/29 04:39:45;;;;;;;33.40;24.65;;;;;;;12.88;100.00;101112.25;5056639;28;20029;-74
2021/04/29 04:42:31;;;;;;;35.03;25.27;;;;;;;13.24;100.00;101116.78;5056661;28;20413;-75
2021/04/29 04:45:17;;;;;;;38.72;28.17;;;;;;;13.02;100.00;101122.53;5056822;28;20095;-74
2021/04/29 04:48:03;;;;;;;36.67;28.05;;;;;;;12.75;100.00;101123.94;5056900;28;20377;-75
2021/04/29 04:50:49;;;;;;;35.45;27.73;;;;;;;13.17;100.00;101136.22;5055230;28;20025;-74
2021/04/29 04:53:35;;;;;;;33.78;26.77;;;;;;;13.03;100.00;101140.88;5055510;28;20033;-75
2021/04/29 04:56:20;;;;;;;37.80;29.20;;;;;;;13.17;100.00;101137.97;5055512;28;20017;-75
2021/04/29 04:59:06;;;;;;;40.75;29.77;;;;;;;13.19;100.00;101136.19;5056932;28;20033;-74
2021/04/29 05:01:52;;;;;;;37.90;26.90;;;;;;;12.83;100.00;101142.19;5041143;28;20021;-74
2021/04/29 05:04:38;;;;;;;33.70;27.85;;;;;;;12.91;100.00;101145.50;5056061;28;20083;-74
2021/04/29 05:07:24;;;;;;;40.05;29.65;;;;;;;12.90;100.00;101149.06;5055981;28;20033;-74
2021/04/29 05:10:10;;;;;;;38.38;28.30;;;;;;;12.79;100.00;101153.66;5057822;28;20112;-74
2021/04/29 05:12:57;;;;;;;36.17;27.63;;;;;;;13.01;100.00;101149.72;5055801;28;20025;-75
2021/04/29 05:15:43;;;;;;;36.67;28.02;;;;;;;12.93;100.00;101152.47;5056001;28;20409;-74
2021/04/29 05:18:29;;;;;;;34.75;28.92;;;;;;;12.71;100.00;101153.81;5055295;28;20029;-75
2021/04/29 05:21:14;;;;;;;39.10;29.75;;;;;;;12.74;100.00;101160.75;5041816;28;20029;-75
2021/04/29 05:24:00;;;;;;;38.17;29.40;;;;;;;12.89;100.00;101166.59;5054902;28;20028;-75
2021/04/29 05:26:46;;;;;;;38.90;29.33;;;;;;;12.91;100.00;101158.66;5041543;28;20033;-75
2021/04/29 05:29:32;;;;;;;37.10;29.75;;;;;;;13.25;100.00;101162.34;5055419;28;20461;-74
2021/04/29 05:32:17;;;;;;;39.47;30.88;;;;;;;13.18;100.00;101159.00;5054816;28;20032;-75
2021/04/29 05:35:04;;;;;;;39.10;29.92;;;;;;;13.11;100.00;101162.63;5056721;28;20076;-74
2021/04/29 05:37:50;;;;;;;37.75;29.75;;;;;;;13.32;100.00;101170.09;5055045;28;20544;-74
2021/04/29 05:40:36;;;;;;;38.17;30.27;;;;;;;13.62;100.00;101169.41;5055069;28;20445;-75
2021/04/29 05:43:22;;;;;;;40.92;29.23;;;;;;;13.65;100.00;101160.56;5054886;28;20483;-74
2021/04/29 05:46:08;;;;;;;37.88;30.45;;;;;;;13.83;100.00;101171.56;5034777;28;20056;-75
2021/04/29 05:48:54;;;;;;;40.65;30.08;;;;;;;13.94;100.00;101174.81;5021174;28;20422;-74
2021/04/29 05:51:40;;;;;;;38.80;30.20;;;;;;;13.80;100.00;101176.91;5019853;28;20378;-75
2021/04/29 05:54:26;;;;;;;38.63;29.65;;;;;;;13.62;100.00;101181.69;5020690;28;20033;-75
2021/04/29 05:57:12;;;;;;;39.28;29.67;;;;;;;13.75;100.00;101194.56;5033240;28;20425;-74
2021/04/29 05:59:58;;;;;;;41.85;31.77;;;;;;;13.95;100.00;101180.94;5034668;28;20029;-74
2021/04/29 06:02:44;;;;;;;41.40;30.70;;;;;;;14.00;100.00;101185.22;5020442;28;20033;-75
2021/04/29 06:05:29;;;;;;;44.83;32.50;;;;;;;14.07;100.00;101194.69;5035760;28;20029;-75
2021/04/29 06:08:15;;;;;;;38.95;30.77;;;;;;;14.28;100.00;101195.97;5034401;28;20052;-74
2021/04/29 06:11:01;;;;;;;40.95;30.85;;;;;;;14.28;100.00;101191.53;5035605;28;20029;-75
2021/04/29 06:13:47;;;;;;;41.75;31.58;;;;;;;13.75;100.00;101199.84;5034453;28;20108;-75
2021/04/29 06:16:33;;;;;;;43.17;30.63;;;;;;;14.02;100.00;101200.97;5035179;28;20017;-75
2021/04/29 06:19:19;;;;;;;47.72;33.17;;;;;;;13.54;100.00;101208.22;5034478;28;20088;-75
2021/04/29 06:22:05;;;;;;;41.92;30.88;;;;;;;14.05;100.00;101208.78;5033875;28;20099;-74
2021/04/29 06:24:50;;;;;;;40.25;31.17;;;;;;;14.29;100.00;101208.25;5033326;28;20030;-75
2021/04/29 06:27:37;;;;;;;47.28;32.97;;;;;;;14.36;100.00;101202.75;5033641;28;20017;-75
2021/04/29 06:30:23;;;;;;;45.75;33.25;;;;;;;14.45;100.00;101207.81;5034159;28;20098;-75
2021/04/29 06:33:09;;;;;;;47.83;31.33;;;;;;;14.32;100.00;101214.28;5034529;28;20363;-75
2021/04/29 06:35:55;;;;;;;44.88;31.70;;;;;;;14.48;100.00;101209.50;5034642;28;20025;-75
2021/04/29 06:38:40;;;;;;;43.00;28.33;;;;;;;13.74;100.00;101219.19;5034384;28;20461;-75
2021/04/29 06:41:27;;;;;;;42.35;28.55;;;;;;;14.04;100.00;101220.25;5020233;28;20091;-75
2021/04/29 06:44:13;;;;;;;44.08;29.30;;;;;;;13.35;100.00;101221.81;5033233;28;20080;-75
2021/04/29 06:46:59;;;;;;;42.33;29.33;;;;;;;13.23;100.00;101225.53;5019820;28;20175;-75
2021/04/29 06:49:45;;;;;;;44.58;29.92;;;;;;;13.33;100.00;101228.84;5033349;28;20025;-75
2021/04/29 06:52:31;;;;;;;45.53;31.30;;;;;;;13.74;100.00;101239.38;5033995;28;20025;-74
2021/04/29 06:55:17;;;;;;;41.35;27.80;;;;;;;13.65;100.00;101234.31;5033320;28;20025;-74
2021/04/29 06:58:03;;;;;;;40.72;27.08;;;;;;;13.38;100.00;101230.50;5034119;28;20028;-75
2021/04/29 07:00:49;;;;;;;41.67;27.77;;;;;;;14.15;100.00;101220.88;5019518;28;20116;-74
2021/04/29 07:03:35;;;;;;;39.25;27.00;;;;;;;14.09;100.00;101232.41;5033412;28;20025;-74
2021/04/29 07:06:21;;;;;;;37.92;24.30;;;;;;;14.05;100.00;101236.03;5019448;28;20021;-75
2021/04/29 07:09:07;;;;;;;32.35;23.45;;;;;;;14.43;100.00;101235.13;5019495;28;20022;-74
2021/04/29 07:11:54;;;;;;;32.28;23.55;;;;;;;14.51;100.00;101231.38;5033973;28;20108;-74
2021/04/29 07:14:43;;;;;;;30.63;22.45;;;;;;;14.48;100.00;101234.09;5033619;28;20359;-75
2021/04/29 07:17:29;;;;;;;30.98;22.45;;;;;;;14.42;100.00;101236.91;5019694;28;20064;-74
2021/04/29 07:20:15;;;;;;;30.40;22.00;;;;;;;14.77;100.00;101228.97;5033453;28;20061;-74
2021/04/29 07:23:01;;;;;;;27.50;21.35;;;;;;;14.46;100.00;101232.41;5033544;28;20025;-75
2021/04/29 07:25:46;;;;;;;28.02;21.63;;;;;;;14.48;100.00;101227.97;5033066;28;20021;-76
2021/04/29 07:28:36;;;;;;;35.55;24.35;;;;;;;14.60;100.00;101244.34;5033924;28;20044;-74
2021/04/29 07:31:49;;;;;;;28.25;21.92;;;;;;;14.33;100.00;101247.69;5021922;28;20028;-76
2021/04/29 07:34:35;;;;;;;30.02;22.17;;;;;;;14.46;100.00;101249.09;5034501;28;20033;-75
2021/04/29 07:37:20;;;;;;;30.83;22.20;;;;;;;14.91;100.00;101238.28;5033058;28;20047;-74
2021/04/29 07:40:07;;;;;;;27.67;20.80;;;;;;;14.86;100.00;101241.03;5020057;28;20343;-75
2021/04/29 07:42:53;;;;;;;26.27;20.50;;;;;;;14.71;100.00;101246.72;5033027;28;20123;-75
2021/04/29 07:45:39;;;;;;;28.08;20.48;;;;;;;14.93;100.00;101249.63;5035500;28;20463;-74
2021/04/29 07:48:25;;;;;;;25.27;19.88;;;;;;;15.34;100.00;101252.03;5053904;28;20108;-74
2021/04/29 07:51:11;;;;;;;28.98;22.65;;;;;;;15.24;100.00;101254.06;5053595;28;20028;-74
2021/04/29 07:53:57;;;;;;;27.27;20.58;;;;;;;15.07;100.00;101253.63;5043993;28;20028;-75
2021/04/29 07:56:44;;;;;;;24.08;19.13;;;;;;;15.08;100.00;101246.59;5039607;28;20021;-75
2021/04/29 07:59:30;;;;;;;23.85;18.80;;;;;;;15.19;100.00;101245.38;5055405;28;20037;-75
2021/04/29 08:02:16;;;;;;;23.65;19.65;;;;;;;14.91;100.00;101248.81;5057034;28;20079;-75
2021/04/29 08:05:03;;;;;;;25.77;19.38;;;;;;;14.95;100.00;101258.38;5043599;28;20032;-75
2021/04/29 08:07:51;;;;;;;24.65;18.83;;;;;;;15.24;100.00;101266.38;5056558;28;20095;-74
2021/04/29 08:10:39;;;;;;;22.40;18.45;;;;;;;14.70;100.00;101266.06;5056639;28;20040;-75
2021/04/29 08:13:25;;;;;;;25.23;18.95;;;;;;;15.17;100.00;101267.44;5042633;28;20141;-75
2021/04/29 08:16:11;;;;;;;23.35;19.02;;;;;;;15.24;100.00;101264.63;5056487;28;20106;-75
2021/04/29 08:18:57;;;;;;;22.73;18.30;;;;;;;15.31;100.00;101252.94;5055622;28;20063;-75
2021/04/29 08:21:44;;;;;;;23.95;19.23;;;;;;;15.27;100.00;101250.47;5042889;28;20468;-73
2021/04/29 08:24:30;;;;;;;23.20;16.67;;;;;;;15.28;100.00;101253.06;5042690;28;20033;-74
2021/04/29 08:27:16;;;;;;;25.90;18.17;;;;;;;15.57;100.00;101254.88;5041161;28;20369;-74
2021/04/29 08:30:02;;;;;;;27.30;17.55;;;;;;;15.37;100.00;101252.81;5056348;28;20067;-74
2021/04/29 08:32:48;;;;;;;32.10;18.75;;;;;;;15.18;100.00;101256.84;5055904;28;20481;-73
2021/04/29 08:35:34;;;;;;;28.55;18.83;;;;;;;15.47;100.00;101256.91;5042450;28;20016;-72
2021/04/29 08:38:20;;;;;;;20.98;17.65;;;;;;;15.32;100.00;101248.53;5041412;28;20092;-74
2021/04/29 08:41:06;;;;;;;20.65;16.30;;;;;;;15.16;100.00;101260.44;5056023;28;20028;-74
2021/04/29 08:43:52;;;;;;;19.52;16.35;;;;;;;15.14;100.00;101259.63;5055268;28;20029;-73
2021/04/29 08:46:38;;;;;;;23.60;18.92;;;;;;;15.74;100.00;101265.81;5030964;28;20073;-73
2021/04/29 08:49:26;;;;;;;21.13;17.88;;;;;;;16.15;100.00;101262.78;5035223;28;20461;-72
2021/04/29 08:52:14;;;;;;;18.92;16.83;;;;;;;15.68;100.00;101253.69;5035314;28;20025;-73
2021/04/29 08:55:00;;;;;;;19.45;16.77;;;;;;;16.43;100.00;101259.22;5035393;28;20047;-75
2021/04/29 08:57:47;;;;;;;20.75;16.08;;;;;;;16.30;100.00;101259.63;5021361;28;20112;-74
2021/04/29 09:00:32;;;;;;;18.83;15.55;;;;;;;16.02;100.00;101256.13;5008732;28;20450;-75
2021/04/29 09:03:27;;;;;;;20.50;16.33;;;;;;;15.62;100.00;101251.19;5035860;28;20033;-74
2021/04/29 09:06:14;;;;;;;17.55;14.25;;;;;;;15.07;100.00;101258.06;5036036;28;20511;-75
2021/04/29 09:09:00;;;;;;;18.38;15.48;;;;;;;15.92;100.00;101249.41;5035188;28;20099;-75
2021/04/29 09:11:53;;;;;;;17.77;14.40;;;;;;;16.18;100.00;101246.81;5035971;28;20025;-75
2021/04/29 09:14:42;;;;;;;17.05;13.05;;;;;;;16.80;100.00;101241.19;5036847;28;20033;-73
2021/04/29 09:17:28;;;;;;;15.75;12.95;;;;;;;17.31;100.00;101243.78;5035805;28;20029;-75
2021/04/29 09:20:20;;;;;;;15.77;12.63;;;;;;;16.99;100.00;101241.41;5036508;28;20124;-75
2021/04/29 09:23:07;;;;;;;15.20;12.70;;;;;;;17.06;100.00;101243.81;5021942;28;20029;-75
2021/04/29 09:26:00;;;;;;;15.00;12.70;;;;;;;16.93;100.00;101239.00;5035723;28;20357;-75
2021/04/29 09:28:50;;;;;;;16.25;12.98;;;;;;;17.08;100.00;101239.31;5035788;28;20113;-76
2021/04/29 09:31:44;;;;;;;16.67;11.90;;;;;;;15.28;100.00;101239.84;5035508;28;20044;-74
2021/04/29 09:34:38;;;;;;;15.38;12.15;;;;;;;16.44;100.00;101236.31;5035358;28;20108;-76
2021/04/29 09:37:37;;;;;;;14.27;12.77;;;;;;;17.15;100.00;101234.66;5034100;28;20025;-77
2021/04/29 09:40:25;;;;;;;14.05;12.15;;;;;;;17.36;100.00;101232.09;5022021;28;20033;-75
2021/04/29 09:43:11;;;;;;;15.80;13.10;;;;;;;17.15;100.00;101229.34;5035511;28;20040;-75
2021/04/29 09:46:00;;;;;;;13.13;11.60;;;;;;;16.97;100.00;101230.91;5040582;28;20073;-74
2021/04/29 09:48:47;;;;;;;14.27;12.15;;;;;;;17.17;100.00;101232.84;5041121;28;20025;-75
2021/04/29 09:51:36;;;;;;;13.75;11.80;;;;;;;17.65;100.00;101237.19;5056436;28;20499;-75
2021/04/29 09:54:34;;;;;;;13.10;11.70;;;;;;;17.24;100.00;101231.69;5055127;28;20824;-75
2021/04/29 09:57:28;;;;;;;12.80;11.35;;;;;;;17.43;100.00;101232.75;5041746;28;20048;-76
2021/04/29 10:00:14;;;;;;;16.52;12.93;;;;;;;17.41;100.00;101237.25;5040092;28;20036;-74
2021/04/29 10:03:01;;;;;;;26.42;16.00;;;;;;;17.77;100.00;101235.88;5055381;28;20385;-73
2021/04/29 10:05:53;;;;;;;17.63;12.30;;;;;;;17.87;100.00;101232.81;5054765;28;20025;-73
2021/04/29 10:08:39;;;;;;;14.98;12.90;;;;;;;16.27;100.00;101222.75;5041640;28;20417;-75
2021/04/29 10:11:26;;;;;;;14.60;13.02;;;;;;;17.57;100.00;101227.81;5056620;28;20120;-75
2021/04/29 10:14:17;;;;;;;13.63;11.25;;;;;;;17.94;100.00;101228.13;5054185;28;20056;-75
2021/04/29 10:17:06;;;;;;;14.75;12.55;;;;;;;17.83;100.00;101217.06;5054798;28;20167;-75
2021/04/29 10:19:58;;;;;;;13.82;12.35;;;;;;;17.81;100.00;101218.94;5055386;28;20108;-75
2021/04/29 10:23:22;;;;;;;;;;;;;;;;;;;;;
2021/04/29 10:26:09;;;;;;;15.90;11.85;;;;;;;17.60;100.00;101222.41;5034726;28;20433;-73
2021/04/29 10:29:03;;;;;;;13.98;12.30;;;;;;;17.79;100.00;101220.75;5041382;28;20025;-74
2021/04/29 10:31:55;;;;;;;17.40;12.55;;;;;;;18.15;100.00;101222.84;5039286;28;20420;-74
2021/04/29 10:34:47;;;;;;;14.88;12.63;;;;;;;17.83;100.00;101223.25;5055469;28;20111;-73
2021/04/29 10:37:33;;;;;;;13.85;11.68;;;;;;;18.04;100.00;101226.81;5055447;28;20437;-75
2021/04/29 10:40:43;;;;;;;16.45;12.27;;;;;;;17.50;100.00;101219.25;5040674;28;20025;-75
2021/04/29 10:43:32;;;;;;;17.40;12.63;;;;;;;17.79;100.00;101218.97;5040842;28;20048;-73
2021/04/29 10:46:32;;;;;;;13.68;11.55;;;;;;;17.69;100.00;101219.41;5032078;28;20439;-73
2021/04/29 10:49:17;;;;;;;14.70;11.75;;;;;;;17.24;100.00;101210.50;5019671;28;20517;-74
2021/04/29 10:52:03;;;;;;;14.32;11.88;;;;;;;17.60;100.00;101215.31;5021233;28;20029;-75
2021/04/29 10:54:51;;;;;;;16.50;11.77;;;;;;;17.53;100.00;101208.50;5019929;28;20122;-74
2021/04/29 10:57:41;;;;;;;14.40;11.55;;;;;;;18.02;100.00;101208.34;5018419;28;20030;-74
2021/04/29 11:00:31;;;;;;;14.60;11.95;;;;;;;18.18;100.00;101200.63;5032873;28;20025;-75
2021/04/29 11:03:29;;;;;;;15.15;11.10;;;;;;;18.23;100.00;101193.31;5034253;28;20026;-73
2021/04/29 11:06:27;;;;;;;13.93;10.70;;;;;;;18.88;100.00;101197.59;5034224;28;20029;-73
2021/04/29 11:09:21;;;;;;;13.80;10.82;;;;;;;18.88;100.00;101196.72;5034267;28;20116;-73
2021/04/29 11:12:09;;;;;;;14.05;11.10;;;;;;;18.87;100.00;101195.88;5034283;28;20087;-75
2021/04/29 11:14:55;;;;;;;15.15;10.50;;;;;;;18.65;100.00;101183.63;5032653;28;20022;-73
2021/04/29 11:17:40;;;;;;;13.02;10.75;;;;;;;18.32;100.00;101188.50;5033715;28;20033;-76
2021/04/29 11:20:26;;;;;;;10.75;9.52;;;;;;;18.54;100.00;101175.25;5034052;28;20032;-74
2021/04/29 11:23:14;;;;;;;12.25;10.27;;;;;;;18.55;100.00;101182.25;5035220;28;20025;-75
2021/04/29 11:26:10;;;;;;;11.70;9.57;;;;;;;18.05;100.00;101189.63;5019525;28;20032;-76
2021/04/29 11:28:56;;;;;;;11.50;8.77;;;;;;;17.34;100.00;101194.22;5035182;28;20029;-75
2021/04/29 11:31:42;;;;;;;12.25;9.20;;;;;;;17.51;100.00;101201.53;5020388;28;20096;-74
2021/04/29 11:34:38;;;;;;;14.45;10.10;;;;;;;17.88;100.00;101193.91;5037097;28;20040;-75
2021/04/29 11:37:24;;;;;;;12.02;9.98;;;;;;;17.55;100.00;101196.06;5022448;28;20112;-75
2021/04/29 11:40:13;;;;;;;13.38;9.65;;;;;;;16.94;100.00;101193.94;5024258;28;20045;-75
2021/04/29 11:43:00;;;;;;;10.02;8.93;;;;;;;17.06;100.00;101190.84;5038031;28;20035;-75
2021/04/29 11:45:46;;;;;;;11.57;9.95;;;;;;;16.92;100.00;101193.13;5042091;28;20455;-74
2021/04/29 11:48:33;;;;;;;13.02;10.10;;;;;;;17.52;100.00;101198.00;5057633;28;20043;-74
2021/04/29 11:51:19;;;;;;;11.15;9.27;;;;;;;17.35;100.00;101192.41;5058400;28;20044;-73
2021/04/29 11:54:06;;;;;;;11.10;8.40;;;;;;;17.76;100.00;101195.25;5057852;28;20059;-73
2021/04/29 11:56:56;;;;;;;14.15;10.10;;;;;;;16.57;100.00;101193.53;5059190;28;20017;-74
2021/04/29 11:59:48;;;;;;;12.35;9.35;;;;;;;17.33;100.00;101192.47;5056834;28;20475;-74
2021/04/29 12:02:34;;;;;;;11.57;9.60;;;;;;;17.46;100.00;101196.44;5059049;28;20055;-73
2021/04/29 12:05:49;;;;;;;16.38;11.75;;;;;;;17.94;100.00;101199.84;5043463;28;20046;-75
2021/04/29 12:08:36;;;;;;;10.27;8.50;;;;;;;16.41;100.00;101184.38;5057605;28;20128;-75
2021/04/29 12:11:21;;;;;;;18.58;14.18;;;;;;;17.36;100.00;101187.06;5043580;28;20025;-73
2021/04/29 12:14:07;;;;;;;11.15;9.50;;;;;;;17.77;100.00;101180.22;5056785;28;20028;-76
2021/04/29 12:17:01;;;;;;;11.07;8.77;;;;;;;18.04;100.00;101181.75;5058701;28;20353;-75
2021/04/29 12:19:49;;;;;;;11.63;8.98;;;;;;;17.62;100.00;101184.34;5057162;28;20163;-75
2021/04/29 12:22:40;;;;;;;10.05;8.82;;;;;;;17.47;100.00;101174.31;5058401;28;20025;-75
2021/04/29 12:25:25;;;;;;;10.00;8.73;;;;;;;17.87;100.00;101173.59;5043499;28;20412;-74
2021/04/29 12:28:17;;;;;;;10.65;8.93;;;;;;;17.42;100.00;101176.28;5057465;28;20334;-74
2021/04/29 12:31:20;;;;;;;13.30;9.18;;;;;;;17.80;100.00;101169.50;5057389;28;20406;-75
2021/04/29 12:34:19;;;;;;;13.13;9.10;;;;;;;17.80;100.00;101174.81;5057165;28;20037;-74
2021/04/29 12:37:12;;;;;;;11.57;9.30;;;;;;;17.90;100.00;101174.38;5057519;28;20409;-75